Terminal Aerodrome Forecast
Issued by NWS

Home | Current Version | Previous Version | Text Only | Print | Product List | Glossary On
Versions: 1 2 3 4 5 6 7 8 9 10 11 12
000
FTUS46 KOTX 271738
TAFCOE
TAF
KCOE 271738Z 2718/2818 19008KT P6SM SKC
     FM272200 25008KT P6SM FEW150
     FM280200 03007KT P6SM BKN150
     FM281300 05012KT P6SM SCT150
      AMD LTD TO CLD VIS AND WIND=

USA.gov is the U.S. government's official web portal to all federal, state and local government web resources and services.